Palmeira, Brazil
Current Conditions -  °F | °C
As of 8:00 PM on Sunday 23 Nov 2014 (Local Time) from SBBI Reporting Station
Broken Clouds Broken Clouds  
Wind Chill: 64°   Ceiling: 700
Heat Index: 64°   Visibility: 6mi
Dew Point: 61°   Wind: 9mph
Humidity: 88%   Direction: 110°ESE
Pressure: 30.03"   Gusts: NA
Location:  25.43°S, 50.01°W
Report Text: SBBI 232200Z 11008KT 9999 BKN007 BKN012 18/16 Q1017
Loading
Personal Weather Stations






























Interactive Weather Map New forecast layout! Learn more

10-Day Weather Forecast

Advertisements
Track Severe Weather on mobile